Terminal Aerodrome Forecast
Issued by NWS Pendleton, OR

Home | Current Version | Previous Version | Text Only | Print | Product List | Glossary On
Versions: 1 2 3 4 5 6 7 8 9 10 11 12 13 14 15 16 17 18 19 20 21 22 23 24
000
FTUS46 KPDT 172300
TAFPDT
TAF
KPDT 172320Z 1800/1824 31007KT 1/4SM FG OVC003
      TEMPO 1800/1802 1 1/2SM BR OVC007
     FM180200 05003KT 1/2SM FG OVC002
      TEMPO 1802/1806 1/4SM FG VV001
     FM180600 17003KT 1/4SM FG VV001
     FM181800 VRB03KT 3SM BR OVC007=

USA.gov is the U.S. government's official web portal to all federal, state and local government web resources and services.